<data xmlns:xsi="http://www.w3.org/2001/XMLSchema-instance">
<row _id="1"><bid>544b8416-ff34-4591-898e-09cec0a838de</bid><run_flg>1</run_flg><datetime>2014-11-06T13:41:00</datetime><lat>37.50072701</lat><lng>139.8916899</lng><speed>5.25</speed><bearing>220</bearing><measurement_date>2014-11-06T00:00:00</measurement_date><measurement_hour>13</measurement_hour></row>
<row _id="2"><bid>544b8416-ff34-4591-898e-09cec0a838de</bid><run_flg>1</run_flg><datetime>2014-12-17T14:45:01</datetime><lat>37.50579934</lat><lng>139.92862007</lng><speed>0.0</speed><bearing>0</bearing><measurement_date>2014-12-17T00:00:00</measurement_date><measurement_hour>14</measurement_hour></row>
<row _id="3"><bid>544b8416-ff34-4591-898e-09cec0a838de</bid><run_flg>1</run_flg><datetime>2014-12-17T14:45:11</datetime><lat>37.50579934</lat><lng>139.92862475</lng><speed>0.0</speed><bearing>0</bearing><measurement_date>2014-12-17T00:00:00</measurement_date><measurement_hour>14</measurement_hour></row>
<row _id="4"><bid>544b8416-ff34-4591-898e-09cec0a838de</bid><run_flg>1</run_flg><datetime>2014-12-17T14:45:21</datetime><lat>37.50579885</lat><lng>139.92862543</lng><speed>0.0</speed><bearing>0</bearing><measurement_date>2014-12-17T00:00:00</measurement_date><measurement_hour>14</measurement_hour></row>
<row _id="5"><bid>544b8416-ff34-4591-898e-09cec0a838de</bid><run_flg>1</run_flg><datetime>2014-12-17T14:45:30</datetime><lat>37.50579851</lat><lng>139.92862574</lng><speed>0.0</speed><bearing>0</bearing><measurement_date>2014-12-17T00:00:00</measurement_date><measurement_hour>14</measurement_hour></row>
<row _id="6"><bid>544b8416-ff34-4591-898e-09cec0a838de</bid><run_flg>1</run_flg><datetime>2014-12-17T14:45:40</datetime><lat>37.50579825</lat><lng>139.92862592</lng><speed>0.0</speed><bearing>0</bearing><measurement_date>2014-12-17T00:00:00</measurement_date><measurement_hour>14</measurement_hour></row>
<row _id="7"><bid>544b8416-ff34-4591-898e-09cec0a838de</bid><run_flg>1</run_flg><datetime>2014-12-17T14:45:50</datetime><lat>37.50580087</lat><lng>139.92863241</lng><speed>0.0</speed><bearing>0</bearing><measurement_date>2014-12-17T00:00:00</measurement_date><measurement_hour>14</measurement_hour></row>
<row _id="8"><bid>544b8416-ff34-4591-898e-09cec0a838de</bid><run_flg>1</run_flg><datetime>2014-12-24T17:07:47</datetime><lat>37.54876742</lat><lng>139.93203919</lng><speed>0.0</speed><bearing>0</bearing><measurement_date>2014-12-24T00:00:00</measurement_date><measurement_hour>17</measurement_hour></row>
<row _id="9"><bid>544b8416-ff34-4591-898e-09cec0a838de</bid><run_flg>1</run_flg><datetime>2014-12-24T17:07:47</datetime><lat>37.54876742</lat><lng>139.93203919</lng><speed>0.0</speed><bearing>0</bearing><measurement_date>2014-12-24T00:00:00</measurement_date><measurement_hour>17</measurement_hour></row>
<row _id="10"><bid>544b8416-ff34-4591-898e-09cec0a838de</bid><run_flg>1</run_flg><datetime>2014-12-24T17:07:47</datetime><lat>37.54876742</lat><lng>139.93203919</lng><speed>0.0</speed><bearing>0</bearing><measurement_date>2014-12-24T00:00:00</measurement_date><measurement_hour>17</measurement_hour></row>
<row _id="11"><bid>544b8416-ff34-4591-898e-09cec0a838de</bid><run_flg>1</run_flg><datetime>2014-12-24T17:07:47</datetime><lat>37.54876742</lat><lng>139.93203919</lng><speed>0.0</speed><bearing>0</bearing><measurement_date>2014-12-24T00:00:00</measurement_date><measurement_hour>17</measurement_hour></row>
<row _id="12"><bid>544b8416-ff34-4591-898e-09cec0a838de</bid><run_flg>1</run_flg><datetime>2014-12-24T17:07:47</datetime><lat>37.54876742</lat><lng>139.93203919</lng><speed>0.0</speed><bearing>0</bearing><measurement_date>2014-12-24T00:00:00</measurement_date><measurement_hour>17</measurement_hour></row>
<row _id="13"><bid>544b8416-ff34-4591-898e-09cec0a838de</bid><run_flg>1</run_flg><datetime>2014-12-24T17:07:47</datetime><lat>37.54876742</lat><lng>139.93203919</lng><speed>0.0</speed><bearing>0</bearing><measurement_date>2014-12-24T00:00:00</measurement_date><measurement_hour>17</measurement_hour></row>
<row _id="14"><bid>544b8416-ff34-4591-898e-09cec0a838de</bid><run_flg>1</run_flg><datetime>2014-12-24T17:07:47</datetime><lat>37.54876742</lat><lng>139.93203919</lng><speed>0.0</speed><bearing>0</bearing><measurement_date>2014-12-24T00:00:00</measurement_date><measurement_hour>17</measurement_hour></row>
<row _id="15"><bid>544b8416-ff34-4591-898e-09cec0a838de</bid><run_flg>0</run_flg><datetime>2014-12-25T09:15:49</datetime><lat>37.48956743</lat><lng>139.93288801</lng><speed>3.0</speed><bearing>254</bearing><measurement_date>2014-12-25T00:00:00</measurement_date><measurement_hour>9</measurement_hour></row>
<row _id="16"><bid>544b8416-ff34-4591-898e-09cec0a838de</bid><run_flg>1</run_flg><datetime>2014-12-25T09:16:09</datetime><lat>37.48955938</lat><lng>139.93246441</lng><speed>0.0</speed><bearing>0</bearing><measurement_date>2014-12-25T00:00:00</measurement_date><measurement_hour>9</measurement_hour></row>
<row _id="17"><bid>544b8416-ff34-4591-898e-09cec0a838de</bid><run_flg>1</run_flg><datetime>2014-12-25T09:16:19</datetime><lat>37.48955781</lat><lng>139.93246176</lng><speed>0.0</speed><bearing>0</bearing><measurement_date>2014-12-25T00:00:00</measurement_date><measurement_hour>9</measurement_hour></row>
<row _id="18"><bid>544b8416-ff34-4591-898e-09cec0a838de</bid><run_flg>1</run_flg><datetime>2014-12-25T09:16:28</datetime><lat>37.48958428</lat><lng>139.93240154</lng><speed>1.75</speed><bearing>314</bearing><measurement_date>2014-12-25T00:00:00</measurement_date><measurement_hour>9</measurement_hour></row>
<row _id="19"><bid>544b8416-ff34-4591-898e-09cec0a838de</bid><run_flg>1</run_flg><datetime>2014-12-25T09:16:39</datetime><lat>37.48975398</lat><lng>139.93234998</lng><speed>0.0</speed><bearing>0</bearing><measurement_date>2014-12-25T00:00:00</measurement_date><measurement_hour>9</measurement_hour></row>
<row _id="20"><bid>544b8416-ff34-4591-898e-09cec0a838de</bid><run_flg>1</run_flg><datetime>2014-12-25T09:16:49</datetime><lat>37.48973992</lat><lng>139.93231247</lng><speed>0.0</speed><bearing>0</bearing><measurement_date>2014-12-25T00:00:00</measurement_date><measurement_hour>9</measurement_hour></row>
<row _id="21"><bid>544b8416-ff34-4591-898e-09cec0a838de</bid><run_flg>1</run_flg><datetime>2014-12-25T09:16:59</datetime><lat>37.48973882</lat><lng>139.93231382</lng><speed>0.0</speed><bearing>0</bearing><measurement_date>2014-12-25T00:00:00</measurement_date><measurement_hour>9</measurement_hour></row>
<row _id="22"><bid>544b8416-ff34-4591-898e-09cec0a838de</bid><run_flg>1</run_flg><datetime>2014-12-25T09:17:08</datetime><lat>37.48973953</lat><lng>139.93231387</lng><speed>0.0</speed><bearing>0</bearing><measurement_date>2014-12-25T00:00:00</measurement_date><measurement_hour>9</measurement_hour></row>
<row _id="23"><bid>544b8416-ff34-4591-898e-09cec0a838de</bid><run_flg>1</run_flg><datetime>2014-12-25T09:17:18</datetime><lat>37.48974028</lat><lng>139.93231408</lng><speed>0.0</speed><bearing>0</bearing><measurement_date>2014-12-25T00:00:00</measurement_date><measurement_hour>9</measurement_hour></row>
<row _id="24"><bid>544b8416-ff34-4591-898e-09cec0a838de</bid><run_flg>1</run_flg><datetime>2014-12-25T09:17:29</datetime><lat>37.48974137</lat><lng>139.93231451</lng><speed>0.0</speed><bearing>0</bearing><measurement_date>2014-12-25T00:00:00</measurement_date><measurement_hour>9</measurement_hour></row>
<row _id="25"><bid>544b8416-ff34-4591-898e-09cec0a838de</bid><run_flg>1</run_flg><datetime>2014-12-25T09:17:37</datetime><lat>37.48974212</lat><lng>139.93231464</lng><speed>0.0</speed><bearing>0</bearing><measurement_date>2014-12-25T00:00:00</measurement_date><measurement_hour>9</measurement_hour></row>
<row _id="26"><bid>544b8416-ff34-4591-898e-09cec0a838de</bid><run_flg>1</run_flg><datetime>2014-12-25T09:17:48</datetime><lat>37.489743</lat><lng>139.93231476</lng><speed>0.0</speed><bearing>0</bearing><measurement_date>2014-12-25T00:00:00</measurement_date><measurement_hour>9</measurement_hour></row>
<row _id="27"><bid>544b8416-ff34-4591-898e-09cec0a838de</bid><run_flg>1</run_flg><datetime>2014-12-25T09:17:58</datetime><lat>37.48974399</lat><lng>139.93231507</lng><speed>0.0</speed><bearing>0</bearing><measurement_date>2014-12-25T00:00:00</measurement_date><measurement_hour>9</measurement_hour></row>
<row _id="28"><bid>544b8416-ff34-4591-898e-09cec0a838de</bid><run_flg>1</run_flg><datetime>2014-12-25T09:18:08</datetime><lat>37.48974445</lat><lng>139.93231524</lng><speed>0.0</speed><bearing>0</bearing><measurement_date>2014-12-25T00:00:00</measurement_date><measurement_hour>9</measurement_hour></row>
<row _id="29"><bid>544b8416-ff34-4591-898e-09cec0a838de</bid><run_flg>1</run_flg><datetime>2014-12-25T09:18:18</datetime><lat>37.4897449</lat><lng>139.93231575</lng><speed>0.0</speed><bearing>0</bearing><measurement_date>2014-12-25T00:00:00</measurement_date><measurement_hour>9</measurement_hour></row>
<row _id="30"><bid>544b8416-ff34-4591-898e-09cec0a838de</bid><run_flg>1</run_flg><datetime>2014-12-25T09:18:28</datetime><lat>37.48978234</lat><lng>139.9323328</lng><speed>0.0</speed><bearing>0</bearing><measurement_date>2014-12-25T00:00:00</measurement_date><measurement_hour>9</measurement_hour></row>
<row _id="31"><bid>544b8416-ff34-4591-898e-09cec0a838de</bid><run_flg>1</run_flg><datetime>2014-12-25T09:18:38</datetime><lat>37.48980441</lat><lng>139.93233694</lng><speed>0.0</speed><bearing>0</bearing><measurement_date>2014-12-25T00:00:00</measurement_date><measurement_hour>9</measurement_hour></row>
<row _id="32"><bid>544b8416-ff34-4591-898e-09cec0a838de</bid><run_flg>1</run_flg><datetime>2014-12-25T09:18:48</datetime><lat>37.48980578</lat><lng>139.93233715</lng><speed>0.0</speed><bearing>0</bearing><measurement_date>2014-12-25T00:00:00</measurement_date><measurement_hour>9</measurement_hour></row>
<row _id="33"><bid>544b8416-ff34-4591-898e-09cec0a838de</bid><run_flg>1</run_flg><datetime>2014-12-25T09:18:58</datetime><lat>37.48980676</lat><lng>139.93233704</lng><speed>0.0</speed><bearing>0</bearing><measurement_date>2014-12-25T00:00:00</measurement_date><measurement_hour>9</measurement_hour></row>
<row _id="34"><bid>544b8416-ff34-4591-898e-09cec0a838de</bid><run_flg>1</run_flg><datetime>2014-12-25T09:19:08</datetime><lat>37.48980676</lat><lng>139.93233694</lng><speed>0.0</speed><bearing>0</bearing><measurement_date>2014-12-25T00:00:00</measurement_date><measurement_hour>9</measurement_hour></row>
<row _id="35"><bid>544b8416-ff34-4591-898e-09cec0a838de</bid><run_flg>1</run_flg><datetime>2014-12-25T09:19:18</datetime><lat>37.48980648</lat><lng>139.93233685</lng><speed>0.0</speed><bearing>0</bearing><measurement_date>2014-12-25T00:00:00</measurement_date><measurement_hour>9</measurement_hour></row>
<row _id="36"><bid>544b8416-ff34-4591-898e-09cec0a838de</bid><run_flg>1</run_flg><datetime>2014-12-25T09:19:28</datetime><lat>37.48980726</lat><lng>139.93233664</lng><speed>0.0</speed><bearing>0</bearing><measurement_date>2014-12-25T00:00:00</measurement_date><measurement_hour>9</measurement_hour></row>
<row _id="37"><bid>544b8416-ff34-4591-898e-09cec0a838de</bid><run_flg>1</run_flg><datetime>2014-12-25T09:19:38</datetime><lat>37.48980798</lat><lng>139.93233633</lng><speed>0.0</speed><bearing>0</bearing><measurement_date>2014-12-25T00:00:00</measurement_date><measurement_hour>9</measurement_hour></row>
<row _id="38"><bid>544b8416-ff34-4591-898e-09cec0a838de</bid><run_flg>1</run_flg><datetime>2014-12-25T09:19:48</datetime><lat>37.48981358</lat><lng>139.93232479</lng><speed>0.0</speed><bearing>0</bearing><measurement_date>2014-12-25T00:00:00</measurement_date><measurement_hour>9</measurement_hour></row>
<row _id="39"><bid>544b8416-ff34-4591-898e-09cec0a838de</bid><run_flg>1</run_flg><datetime>2014-12-25T09:19:58</datetime><lat>37.48982082</lat><lng>139.9323131</lng><speed>0.0</speed><bearing>0</bearing><measurement_date>2014-12-25T00:00:00</measurement_date><measurement_hour>9</measurement_hour></row>
<row _id="40"><bid>544b8416-ff34-4591-898e-09cec0a838de</bid><run_flg>1</run_flg><datetime>2014-12-25T09:20:08</datetime><lat>37.48982115</lat><lng>139.93231266</lng><speed>0.0</speed><bearing>0</bearing><measurement_date>2014-12-25T00:00:00</measurement_date><measurement_hour>9</measurement_hour></row>
<row _id="41"><bid>544b8416-ff34-4591-898e-09cec0a838de</bid><run_flg>1</run_flg><datetime>2014-12-25T09:20:18</datetime><lat>37.48982114</lat><lng>139.93231231</lng><speed>0.0</speed><bearing>0</bearing><measurement_date>2014-12-25T00:00:00</measurement_date><measurement_hour>9</measurement_hour></row>
<row _id="42"><bid>544b8416-ff34-4591-898e-09cec0a838de</bid><run_flg>1</run_flg><datetime>2014-12-25T09:20:28</datetime><lat>37.48991514</lat><lng>139.93232916</lng><speed>1.75</speed><bearing>7</bearing><measurement_date>2014-12-25T00:00:00</measurement_date><measurement_hour>9</measurement_hour></row>
<row _id="43"><bid>544b8416-ff34-4591-898e-09cec0a838de</bid><run_flg>1</run_flg><datetime>2014-12-25T09:20:38</datetime><lat>37.49002577</lat><lng>139.93231935</lng><speed>0.25</speed><bearing>356</bearing><measurement_date>2014-12-25T00:00:00</measurement_date><measurement_hour>9</measurement_hour></row>
<row _id="44"><bid>544b8416-ff34-4591-898e-09cec0a838de</bid><run_flg>1</run_flg><datetime>2014-12-25T09:20:48</datetime><lat>37.49005073</lat><lng>139.93213501</lng><speed>1.5</speed><bearing>269</bearing><measurement_date>2014-12-25T00:00:00</measurement_date><measurement_hour>9</measurement_hour></row>
<row _id="45"><bid>544b8416-ff34-4591-898e-09cec0a838de</bid><run_flg>1</run_flg><datetime>2014-12-25T09:20:58</datetime><lat>37.49006813</lat><lng>139.93162644</lng><speed>4.5</speed><bearing>279</bearing><measurement_date>2014-12-25T00:00:00</measurement_date><measurement_hour>9</measurement_hour></row>
<row _id="46"><bid>544b8416-ff34-4591-898e-09cec0a838de</bid><run_flg>1</run_flg><datetime>2014-12-25T09:21:08</datetime><lat>37.49012219</lat><lng>139.93091647</lng><speed>6.0</speed><bearing>277</bearing><measurement_date>2014-12-25T00:00:00</measurement_date><measurement_hour>9</measurement_hour></row>
<row _id="47"><bid>544b8416-ff34-4591-898e-09cec0a838de</bid><run_flg>1</run_flg><datetime>2014-12-25T09:21:17</datetime><lat>37.49023266</lat><lng>139.93024319</lng><speed>6.5</speed><bearing>280</bearing><measurement_date>2014-12-25T00:00:00</measurement_date><measurement_hour>9</measurement_hour></row>
<row _id="48"><bid>544b8416-ff34-4591-898e-09cec0a838de</bid><run_flg>1</run_flg><datetime>2014-12-25T09:21:27</datetime><lat>37.49030823</lat><lng>139.92950633</lng><speed>7.0</speed><bearing>278</bearing><measurement_date>2014-12-25T00:00:00</measurement_date><measurement_hour>9</measurement_hour></row>
<row _id="49"><bid>544b8416-ff34-4591-898e-09cec0a838de</bid><run_flg>1</run_flg><datetime>2014-12-25T09:21:37</datetime><lat>37.49043187</lat><lng>139.92870675</lng><speed>6.75</speed><bearing>279</bearing><measurement_date>2014-12-25T00:00:00</measurement_date><measurement_hour>9</measurement_hour></row>
<row _id="50"><bid>544b8416-ff34-4591-898e-09cec0a838de</bid><run_flg>1</run_flg><datetime>2014-12-25T09:21:46</datetime><lat>37.49049364</lat><lng>139.92818306</lng><speed>2.75</speed><bearing>285</bearing><measurement_date>2014-12-25T00:00:00</measurement_date><measurement_hour>9</measurement_hour></row>
</data>
